createdAt,value
2024-03-30T00:00:06.357Z,777.00
2024-03-30T00:01:06.373Z,773.00
2024-03-30T00:02:06.386Z,754.00
2024-03-30T00:03:06.432Z,749.00
2024-03-30T00:04:06.481Z,778.00
2024-03-30T00:05:06.455Z,782.00
2024-03-30T00:06:06.518Z,796.00
2024-03-30T00:07:06.553Z,781.00
2024-03-30T00:08:06.608Z,780.00
2024-03-30T00:09:06.647Z,797.00
2024-03-30T00:10:06.702Z,816.00
2024-03-30T00:11:06.756Z,823.00
2024-03-30T00:12:06.798Z,825.00
2024-03-30T00:13:06.825Z,822.00
2024-03-30T00:14:06.860Z,826.00
2024-03-30T00:15:06.913Z,816.00
2024-03-30T00:16:06.952Z,819.00
2024-03-30T00:17:07.064Z,827.00
2024-03-30T00:18:07.061Z,845.00
2024-03-30T00:19:07.104Z,865.00
2024-03-30T00:20:07.139Z,874.00
2024-03-30T00:21:07.190Z,874.00
2024-03-30T00:22:07.231Z,882.00
2024-03-30T00:23:07.287Z,870.00
2024-03-30T00:24:07.328Z,881.00
2024-03-30T00:25:07.367Z,888.00
2024-03-30T00:26:07.415Z,899.00
2024-03-30T00:27:07.449Z,890.00
2024-03-30T00:28:07.505Z,883.00
2024-03-30T00:29:07.555Z,914.00
2024-03-30T00:30:07.655Z,915.00
2024-03-30T00:31:07.581Z,898.00
2024-03-30T00:32:07.582Z,912.00
2024-03-30T00:33:07.585Z,921.00
2024-03-30T00:34:07.582Z,931.00
2024-03-30T00:35:07.580Z,919.00
2024-03-30T00:36:07.576Z,920.00
2024-03-30T00:37:07.571Z,928.00
2024-03-30T00:38:07.575Z,924.00
2024-03-30T00:39:07.577Z,921.00
2024-03-30T00:40:07.583Z,917.00
2024-03-30T00:41:07.578Z,916.00
2024-03-30T00:42:07.571Z,933.00
2024-03-30T00:43:07.575Z,947.00
2024-03-30T00:44:07.605Z,961.00
2024-03-30T00:45:07.575Z,973.00
2024-03-30T00:46:07.595Z,971.00
2024-03-30T00:47:07.572Z,984.00
2024-03-30T00:48:07.576Z,996.00
2024-03-30T00:49:07.568Z,976.00
2024-03-30T00:50:07.565Z,968.00
2024-03-30T00:51:07.596Z,983.00
2024-03-30T00:52:07.627Z,973.00
2024-03-30T00:53:07.688Z,975.00
2024-03-30T00:54:07.727Z,974.00
2024-03-30T00:55:07.791Z,971.00
2024-03-30T00:56:07.835Z,987.00
2024-03-30T00:57:07.889Z,1004.00
2024-03-30T00:58:07.950Z,1011.00
2024-03-30T00:59:07.985Z,1004.00
2024-03-30T01:00:08.059Z,1017.00
2024-03-30T01:01:08.080Z,1019.00
2024-03-30T01:02:08.114Z,1036.00
2024-03-30T01:03:08.125Z,1037.00
2024-03-30T01:04:08.154Z,1043.00
2024-03-30T01:05:08.201Z,1058.00
2024-03-30T01:06:08.247Z,1060.00
2024-03-30T01:07:08.293Z,1046.00
2024-03-30T01:08:08.315Z,1039.00
2024-03-30T01:09:08.274Z,1039.00
2024-03-30T01:10:08.274Z,1039.00
2024-03-30T01:11:08.300Z,1036.00
2024-03-30T01:12:08.264Z,1046.00
2024-03-30T01:13:08.266Z,1035.00
2024-03-30T01:14:08.272Z,1055.00
2024-03-30T01:15:08.317Z,1057.00
2024-03-30T01:16:08.342Z,1063.00
2024-03-30T01:17:08.350Z,1068.00
2024-03-30T01:18:08.355Z,1093.00
2024-03-30T01:19:08.355Z,1102.00
2024-03-30T01:20:08.395Z,1100.00
2024-03-30T01:21:16.565Z,1090.00
2024-03-30T01:22:09.446Z,1091.00
2024-03-30T01:23:08.439Z,1090.00
2024-03-30T01:24:08.432Z,1091.00
2024-03-30T01:25:08.426Z,1100.00
2024-03-30T01:26:08.406Z,1099.00
2024-03-30T01:27:08.395Z,1107.00
2024-03-30T01:28:08.398Z,1074.00
2024-03-30T01:29:08.391Z,1090.00
2024-03-30T01:30:08.388Z,1089.00
2024-03-30T01:31:08.361Z,1095.00
2024-03-30T01:32:08.426Z,1109.00
2024-03-30T01:33:08.375Z,1097.00
2024-03-30T01:34:08.370Z,1101.00
2024-03-30T01:35:08.370Z,1108.00
2024-03-30T01:36:08.366Z,1117.00
2024-03-30T01:37:08.354Z,1120.00
2024-03-30T01:38:08.350Z,1133.00
2024-03-30T01:39:08.351Z,1132.00
2024-03-30T01:40:08.365Z,1137.00
2024-03-30T01:41:08.357Z,1144.00
2024-03-30T01:42:08.365Z,1160.00
2024-03-30T01:43:08.410Z,1168.00
2024-03-30T01:44:08.455Z,1171.00
2024-03-30T01:45:08.501Z,1170.00
2024-03-30T01:46:08.549Z,1174.00
2024-03-30T01:47:08.599Z,1177.00
2024-03-30T01:48:08.663Z,1196.00
2024-03-30T01:49:08.702Z,1204.00
2024-03-30T01:50:08.728Z,1213.00
2024-03-30T01:51:08.729Z,1220.00
2024-03-30T01:52:08.727Z,1215.00
2024-03-30T01:53:08.731Z,1204.00
2024-03-30T01:54:08.729Z,1192.00
2024-03-30T01:55:08.723Z,1198.00
2024-03-30T01:56:08.736Z,1197.00
2024-03-30T01:57:08.735Z,1207.00
2024-03-30T01:58:08.755Z,1219.00
2024-03-30T01:59:08.741Z,1215.00
2024-03-30T02:00:08.731Z,1212.00
2024-03-30T02:01:08.716Z,1201.00
2024-03-30T02:02:08.718Z,1190.00
2024-03-30T02:03:08.729Z,1202.00
2024-03-30T02:04:08.723Z,1195.00
2024-03-30T02:05:08.721Z,1210.00
2024-03-30T02:06:08.725Z,1199.00
2024-03-30T02:07:08.727Z,1190.00
2024-03-30T02:08:08.756Z,1189.00
2024-03-30T02:09:08.798Z,1194.00
2024-03-30T02:10:08.838Z,1202.00
2024-03-30T02:11:08.880Z,1190.00
2024-03-30T02:12:08.949Z,1200.00
2024-03-30T02:13:08.976Z,1208.00
2024-03-30T02:14:09.023Z,1187.00
2024-03-30T02:15:09.078Z,1190.00
2024-03-30T02:16:09.114Z,1190.00
2024-03-30T02:17:09.155Z,1192.00
2024-03-30T02:18:09.194Z,1193.00
2024-03-30T02:19:09.238Z,1192.00
2024-03-30T02:20:09.237Z,1205.00
2024-03-30T02:21:09.237Z,1206.00
2024-03-30T02:22:09.228Z,1225.00
2024-03-30T02:23:09.904Z,1220.00
2024-03-30T02:24:09.229Z,1211.00
2024-03-30T02:25:09.260Z,1202.00
2024-03-30T02:26:09.303Z,1210.00
2024-03-30T02:27:09.347Z,1201.00
2024-03-30T02:28:09.397Z,1203.00
2024-03-30T02:29:09.437Z,1205.00
2024-03-30T02:30:09.490Z,1214.00
2024-03-30T02:31:09.535Z,1217.00
2024-03-30T02:32:09.572Z,1213.00
2024-03-30T02:33:09.624Z,1218.00
2024-03-30T02:34:09.670Z,1215.00
2024-03-30T02:35:09.742Z,1226.00
2024-03-30T02:36:09.770Z,1226.00
2024-03-30T02:37:09.848Z,1242.00
2024-03-30T02:38:09.892Z,1251.00
2024-03-30T02:39:09.913Z,1252.00
2024-03-30T02:40:09.916Z,1250.00
2024-03-30T02:41:09.899Z,1248.00
2024-03-30T02:42:09.895Z,1254.00
2024-03-30T02:43:09.903Z,1271.00
2024-03-30T02:44:10.828Z,1272.00
2024-03-30T02:45:09.903Z,1249.00
2024-03-30T02:46:09.901Z,1229.00
2024-03-30T02:47:09.918Z,1237.00
2024-03-30T02:48:09.925Z,1249.00
2024-03-30T02:49:09.994Z,1227.00
2024-03-30T02:50:10.022Z,1242.00
2024-03-30T02:51:10.009Z,1247.00
2024-03-30T02:52:10.022Z,1230.00
2024-03-30T02:53:10.034Z,1237.00
2024-03-30T02:54:10.033Z,1238.00
2024-03-30T02:55:10.053Z,1239.00
2024-03-30T02:56:10.038Z,1218.00
2024-03-30T02:57:10.060Z,1210.00
2024-03-30T02:58:10.086Z,1219.00
2024-03-30T02:59:10.136Z,1202.00
2024-03-30T03:00:10.186Z,1218.00
2024-03-30T03:01:10.232Z,1220.00
2024-03-30T03:02:10.290Z,1214.00
2024-03-30T03:03:10.351Z,1211.00
2024-03-30T03:04:10.404Z,1244.00
2024-03-30T03:05:10.456Z,1232.00
2024-03-30T03:06:10.512Z,1237.00
2024-03-30T03:07:10.564Z,1232.00
2024-03-30T03:08:10.631Z,1238.00
2024-03-30T03:09:10.661Z,1219.00
2024-03-30T03:10:10.726Z,1220.00
2024-03-30T03:11:10.794Z,1233.00
2024-03-30T03:12:10.807Z,1221.00
2024-03-30T03:13:10.857Z,1226.00
2024-03-30T03:14:10.927Z,1237.00
2024-03-30T03:15:10.974Z,1235.00
2024-03-30T03:16:11.018Z,1248.00
2024-03-30T03:17:11.079Z,1241.00
2024-03-30T03:18:11.126Z,1247.00
2024-03-30T03:19:11.190Z,1245.00
2024-03-30T03:20:11.238Z,1254.00
2024-03-30T03:21:11.294Z,1261.00
2024-03-30T03:22:11.349Z,1240.00
2024-03-30T03:23:11.401Z,1241.00
2024-03-30T03:24:11.464Z,1237.00
2024-03-30T03:25:11.519Z,1237.00
2024-03-30T03:26:11.587Z,1237.00
2024-03-30T03:27:11.651Z,1241.00
2024-03-30T03:28:11.711Z,1268.00
2024-03-30T03:29:11.781Z,1251.00
2024-03-30T03:30:11.816Z,1252.00
2024-03-30T03:31:11.818Z,1261.00
2024-03-30T03:32:11.837Z,1259.00
2024-03-30T03:33:11.856Z,1269.00
2024-03-30T03:34:11.870Z,1288.00
2024-03-30T03:35:11.882Z,1283.00
2024-03-30T03:36:11.897Z,1292.00
2024-03-30T03:37:11.910Z,1308.00
2024-03-30T03:38:11.999Z,1304.00
2024-03-30T03:39:11.934Z,1303.00
2024-03-30T03:40:11.956Z,1315.00
2024-03-30T03:41:11.960Z,1309.00
2024-03-30T03:42:11.997Z,1291.00
2024-03-30T03:43:12.032Z,1280.00
2024-03-30T03:44:12.073Z,1291.00
2024-03-30T03:45:12.121Z,1291.00
2024-03-30T03:46:12.205Z,1295.00
2024-03-30T03:47:12.228Z,1300.00
2024-03-30T03:48:12.327Z,1291.00
2024-03-30T03:49:12.364Z,1302.00
2024-03-30T03:50:12.421Z,1276.00
2024-03-30T03:51:12.466Z,1286.00
2024-03-30T03:52:12.522Z,1288.00
2024-03-30T03:53:12.592Z,1291.00
2024-03-30T03:54:12.644Z,1296.00
2024-03-30T03:55:12.714Z,1293.00
2024-03-30T03:56:12.731Z,1292.00
2024-03-30T03:57:12.784Z,1303.00
2024-03-30T03:58:12.873Z,1305.00
2024-03-30T03:59:12.899Z,1301.00
2024-03-30T04:00:12.969Z,1304.00
2024-03-30T04:01:13.015Z,1309.00
2024-03-30T04:02:13.072Z,1308.00
2024-03-30T04:03:13.144Z,1304.00
2024-03-30T04:04:13.196Z,1318.00
2024-03-30T04:05:13.258Z,1315.00
2024-03-30T04:06:13.340Z,1285.00
2024-03-30T04:07:13.328Z,1283.00
2024-03-30T04:08:13.377Z,1281.00
2024-03-30T04:09:13.363Z,1288.00
2024-03-30T04:10:13.382Z,1289.00
2024-03-30T04:11:13.404Z,1288.00
2024-03-30T04:12:13.412Z,1299.00
2024-03-30T04:13:13.451Z,1303.00
2024-03-30T04:14:13.439Z,1287.00
2024-03-30T04:15:13.446Z,1301.00
2024-03-30T04:16:13.474Z,1301.00
2024-03-30T04:17:13.487Z,1295.00
2024-03-30T04:18:13.515Z,1291.00
2024-03-30T04:19:13.545Z,1310.00
2024-03-30T04:20:13.533Z,1300.00
2024-03-30T04:21:13.566Z,1295.00
2024-03-30T04:22:13.627Z,1300.00
2024-03-30T04:23:13.682Z,1318.00
2024-03-30T04:24:13.717Z,1310.00
2024-03-30T04:25:13.714Z,1307.00
2024-03-30T04:26:13.725Z,1313.00
2024-03-30T04:27:13.738Z,1312.00
2024-03-30T04:28:13.754Z,1324.00
2024-03-30T04:29:13.762Z,1322.00
2024-03-30T04:30:13.791Z,1330.00
2024-03-30T04:31:13.792Z,1327.00
2024-03-30T04:32:13.803Z,1325.00
2024-03-30T04:33:13.828Z,1323.00
2024-03-30T04:34:13.891Z,1321.00
2024-03-30T04:35:13.951Z,1317.00
2024-03-30T04:36:14.005Z,1317.00
2024-03-30T04:37:14.072Z,1316.00
2024-03-30T04:38:14.143Z,1299.00
2024-03-30T04:39:14.205Z,1303.00
2024-03-30T04:40:14.275Z,1300.00
2024-03-30T04:41:21.538Z,600.00
2024-03-30T04:42:21.549Z,600.00
2024-03-30T04:43:21.540Z,600.00
2024-03-30T04:44:21.542Z,600.00
2024-03-30T04:45:21.534Z,600.00
2024-03-30T04:46:21.537Z,600.00
2024-03-30T04:47:21.533Z,604.00
2024-03-30T04:48:21.533Z,606.00
2024-03-30T04:49:21.538Z,603.00
2024-03-30T04:50:21.523Z,605.00
2024-03-30T04:51:21.515Z,608.00
2024-03-30T04:52:21.511Z,608.00
2024-03-30T04:53:21.507Z,603.00
2024-03-30T04:54:21.511Z,606.00
2024-03-30T04:55:21.507Z,602.00
2024-03-30T04:56:21.504Z,606.00
2024-03-30T04:57:21.527Z,605.00
2024-03-30T04:58:21.518Z,610.00
2024-03-30T04:59:21.511Z,607.00
2024-03-30T05:00:21.503Z,606.00
2024-03-30T05:01:21.538Z,604.00
2024-03-30T05:02:21.599Z,606.00
2024-03-30T05:03:21.664Z,609.00
2024-03-30T05:04:21.720Z,611.00
2024-03-30T05:05:21.787Z,609.00
2024-03-30T05:06:21.845Z,616.00
2024-03-30T05:07:21.898Z,612.00
2024-03-30T05:08:21.966Z,611.00
2024-03-30T05:09:22.023Z,613.00
2024-03-30T05:10:22.092Z,608.00
2024-03-30T05:11:22.154Z,609.00
2024-03-30T05:12:22.229Z,615.00
2024-03-30T05:13:22.270Z,615.00
2024-03-30T05:14:22.311Z,614.00
2024-03-30T05:15:22.330Z,611.00
2024-03-30T05:16:22.404Z,609.00
2024-03-30T05:17:22.461Z,613.00
2024-03-30T05:18:22.508Z,621.00
2024-03-30T05:19:22.516Z,619.00
2024-03-30T05:20:22.536Z,618.00
2024-03-30T05:21:22.553Z,620.00
2024-03-30T05:22:22.651Z,616.00
2024-03-30T05:23:22.648Z,616.00
2024-03-30T05:24:22.671Z,618.00
2024-03-30T05:25:22.680Z,619.00
2024-03-30T05:26:22.830Z,615.00
2024-03-30T05:27:22.808Z,619.00
2024-03-30T05:28:22.800Z,619.00
2024-03-30T05:29:22.787Z,623.00
2024-03-30T05:30:22.841Z,622.00
2024-03-30T05:31:22.887Z,621.00
2024-03-30T05:32:22.973Z,621.00
2024-03-30T05:33:22.998Z,617.00
2024-03-30T05:34:23.033Z,620.00
2024-03-30T05:35:23.094Z,623.00
2024-03-30T05:36:23.137Z,620.00
2024-03-30T05:37:23.188Z,616.00
2024-03-30T05:38:23.244Z,619.00
2024-03-30T05:39:23.293Z,620.00
2024-03-30T05:40:23.336Z,620.00
2024-03-30T05:41:23.375Z,615.00
2024-03-30T05:42:23.418Z,609.00
2024-03-30T05:43:23.430Z,605.00
2024-03-30T05:44:23.434Z,603.00
2024-03-30T05:45:23.436Z,600.00
2024-03-30T05:46:23.434Z,600.00
2024-03-30T05:47:23.469Z,600.00
2024-03-30T05:48:23.423Z,601.00
2024-03-30T05:49:23.467Z,599.00
2024-03-30T05:50:23.505Z,601.00
2024-03-30T05:51:23.552Z,601.00
2024-03-30T05:52:23.583Z,600.00
2024-03-30T05:53:23.613Z,600.00
2024-03-30T05:54:23.643Z,600.00
2024-03-30T05:55:23.708Z,602.00
2024-03-30T05:56:23.720Z,600.00
2024-03-30T05:57:23.733Z,600.00
2024-03-30T05:58:23.738Z,600.00
2024-03-30T05:59:23.767Z,601.00
2024-03-30T06:00:23.862Z,602.00
2024-03-30T06:01:23.821Z,600.00
2024-03-30T06:02:23.860Z,600.00
2024-03-30T06:03:23.931Z,601.00
2024-03-30T06:04:23.905Z,601.00
2024-03-30T06:05:23.912Z,602.00
2024-03-30T06:06:23.905Z,600.00
2024-03-30T06:07:23.888Z,598.00
2024-03-30T06:08:23.886Z,602.00
2024-03-30T06:09:23.850Z,600.00
2024-03-30T06:10:23.858Z,602.00
2024-03-30T06:11:23.847Z,604.00
2024-03-30T06:12:23.817Z,601.00
2024-03-30T06:13:23.799Z,603.00
2024-03-30T06:14:23.755Z,608.00
2024-03-30T06:15:23.731Z,606.00
2024-03-30T06:16:23.710Z,604.00
2024-03-30T06:17:23.661Z,604.00
2024-03-30T06:18:23.624Z,605.00
2024-03-30T06:19:23.616Z,602.00
2024-03-30T06:20:23.640Z,604.00
2024-03-30T06:21:23.665Z,601.00
2024-03-30T06:22:23.670Z,601.00
2024-03-30T06:23:23.670Z,602.00
2024-03-30T06:24:23.689Z,600.00
2024-03-30T06:25:23.673Z,604.00
2024-03-30T06:26:23.671Z,602.00
2024-03-30T06:27:23.649Z,603.00
2024-03-30T06:28:23.640Z,602.00
2024-03-30T06:29:26.129Z,603.00
2024-03-30T06:30:23.540Z,600.00
2024-03-30T06:31:23.481Z,600.00
2024-03-30T06:32:23.419Z,600.00
2024-03-30T06:33:23.358Z,603.00
2024-03-30T06:34:23.289Z,601.00
2024-03-30T06:35:23.222Z,604.00
2024-03-30T06:36:23.154Z,603.00
2024-03-30T06:37:23.088Z,605.00
2024-03-30T06:38:23.039Z,606.00
2024-03-30T06:39:22.991Z,605.00
2024-03-30T06:40:22.972Z,600.00
2024-03-30T06:41:22.866Z,603.00
2024-03-30T06:42:22.839Z,600.00
2024-03-30T06:43:22.704Z,607.00
2024-03-30T06:44:22.635Z,605.00
2024-03-30T06:45:22.554Z,605.00
2024-03-30T06:46:22.478Z,600.00
2024-03-30T06:47:22.393Z,602.00
2024-03-30T06:48:22.343Z,603.00
2024-03-30T06:49:22.235Z,600.00
2024-03-30T06:50:22.171Z,603.00
2024-03-30T06:51:22.088Z,602.00
2024-03-30T06:52:22.010Z,602.00
2024-03-30T06:53:21.923Z,604.00
2024-03-30T06:54:21.846Z,602.00
2024-03-30T06:55:21.760Z,603.00
2024-03-30T06:56:21.681Z,601.00
2024-03-30T06:57:21.591Z,601.00
2024-03-30T06:58:21.511Z,608.00
2024-03-30T06:59:21.422Z,603.00
2024-03-30T07:00:21.332Z,605.00
2024-03-30T07:01:21.251Z,606.00
2024-03-30T07:02:21.163Z,608.00
2024-03-30T07:03:21.073Z,612.00
2024-03-30T07:04:20.985Z,614.00
2024-03-30T07:05:20.890Z,618.00
2024-03-30T07:06:20.796Z,619.00
2024-03-30T07:07:20.721Z,619.00
2024-03-30T07:08:20.643Z,621.00
2024-03-30T07:09:20.545Z,625.00
2024-03-30T07:10:20.458Z,634.00
2024-03-30T07:11:20.379Z,636.00
2024-03-30T07:12:20.297Z,637.00
2024-03-30T07:13:20.231Z,638.00
2024-03-30T07:14:20.148Z,636.00
2024-03-30T07:15:20.078Z,637.00
2024-03-30T07:16:20.018Z,632.00
2024-03-30T07:17:19.961Z,637.00
2024-03-30T07:18:19.859Z,630.00
2024-03-30T07:19:19.792Z,631.00
2024-03-30T07:20:19.729Z,629.00
2024-03-30T07:21:19.677Z,624.00
2024-03-30T07:22:19.603Z,618.00
2024-03-30T07:23:19.536Z,613.00
2024-03-30T07:24:19.521Z,608.00
2024-03-30T07:25:19.508Z,607.00
2024-03-30T07:26:19.488Z,601.00
2024-03-30T07:27:19.471Z,601.00
2024-03-30T07:28:19.461Z,600.00
2024-03-30T07:29:19.431Z,603.00
2024-03-30T07:30:19.375Z,600.00
2024-03-30T07:31:19.322Z,603.00
2024-03-30T07:32:19.289Z,602.00
2024-03-30T07:33:19.247Z,600.00
2024-03-30T07:34:19.214Z,600.00
2024-03-30T07:35:19.191Z,600.00
2024-03-30T07:36:19.161Z,602.00
2024-03-30T07:37:19.120Z,601.00
2024-03-30T07:38:19.076Z,600.00
2024-03-30T07:39:19.034Z,602.00
2024-03-30T07:40:19.037Z,603.00
2024-03-30T07:41:18.979Z,602.00
2024-03-30T07:42:18.970Z,600.00
2024-03-30T07:43:18.969Z,600.00
2024-03-30T07:44:18.917Z,602.00
2024-03-30T07:45:18.836Z,604.00
2024-03-30T07:46:18.771Z,603.00
2024-03-30T07:47:18.844Z,595.00
2024-03-30T07:48:18.708Z,602.00
2024-03-30T07:49:18.695Z,606.00
2024-03-30T07:50:18.693Z,598.00
2024-03-30T07:51:18.650Z,603.00
2024-03-30T07:52:18.624Z,603.00
2024-03-30T07:53:18.587Z,608.00
2024-03-30T07:54:18.540Z,603.00
2024-03-30T07:55:18.505Z,600.00
2024-03-30T07:56:18.448Z,599.00
2024-03-30T07:57:18.403Z,607.00
2024-03-30T07:58:18.376Z,598.00
2024-03-30T07:59:18.351Z,600.00
2024-03-30T08:00:18.284Z,605.00
2024-03-30T08:01:18.208Z,603.00
2024-03-30T08:02:18.134Z,605.00
2024-03-30T08:03:18.073Z,600.00
2024-03-30T08:04:18.008Z,602.00
2024-03-30T08:05:17.931Z,607.00
2024-03-30T08:06:17.865Z,602.00
2024-03-30T08:07:17.799Z,603.00
2024-03-30T08:08:17.712Z,601.00
2024-03-30T08:09:17.659Z,604.00
2024-03-30T08:10:17.582Z,609.00
2024-03-30T08:11:17.494Z,610.00
2024-03-30T08:12:17.457Z,610.00
2024-03-30T08:13:17.417Z,609.00
2024-03-30T08:14:17.366Z,605.00
2024-03-30T08:15:17.282Z,602.00
2024-03-30T08:16:17.219Z,606.00
2024-03-30T08:17:17.158Z,607.00
2024-03-30T08:18:17.186Z,610.00
2024-03-30T08:19:17.115Z,607.00
2024-03-30T08:20:17.101Z,608.00
2024-03-30T08:21:17.080Z,607.00
2024-03-30T08:22:17.018Z,604.00
2024-03-30T08:23:16.964Z,604.00
2024-03-30T08:24:16.871Z,605.00
2024-03-30T08:25:16.786Z,601.00
2024-03-30T08:26:16.721Z,600.00
2024-03-30T08:27:16.674Z,605.00
2024-03-30T08:28:16.698Z,602.00
2024-03-30T08:29:16.602Z,604.00
2024-03-30T08:30:16.521Z,609.00
2024-03-30T08:31:16.487Z,611.00
2024-03-30T08:32:16.419Z,618.00
2024-03-30T08:33:16.407Z,619.00
2024-03-30T08:34:18.378Z,623.00
2024-03-30T08:35:16.254Z,628.00
2024-03-30T08:36:16.182Z,631.00
2024-03-30T08:37:16.116Z,628.00
2024-03-30T08:38:16.070Z,632.00
2024-03-30T08:39:15.987Z,630.00
2024-03-30T08:40:15.931Z,633.00
2024-03-30T08:41:15.859Z,633.00
2024-03-30T08:42:18.230Z,635.00
2024-03-30T08:43:15.746Z,635.00
2024-03-30T08:44:15.693Z,636.00
2024-03-30T08:45:15.601Z,633.00
2024-03-30T08:46:15.539Z,632.00
2024-03-30T08:47:15.476Z,633.00
2024-03-30T08:48:15.407Z,621.00
2024-03-30T08:49:15.359Z,627.00
2024-03-30T08:50:15.289Z,626.00
2024-03-30T08:51:15.219Z,622.00
2024-03-30T08:52:15.150Z,621.00
2024-03-30T08:53:15.121Z,616.00
2024-03-30T08:54:15.035Z,618.00
2024-03-30T08:55:14.963Z,611.00
2024-03-30T08:56:14.904Z,608.00
2024-03-30T08:57:14.847Z,604.00
2024-03-30T08:58:14.781Z,608.00
2024-03-30T08:59:14.728Z,608.00
2024-03-30T09:00:14.660Z,610.00
2024-03-30T09:01:14.609Z,614.00
2024-03-30T09:02:14.537Z,611.00
2024-03-30T09:03:14.486Z,608.00
2024-03-30T09:04:14.421Z,607.00
2024-03-30T09:05:14.352Z,609.00
2024-03-30T09:06:14.295Z,603.00
2024-03-30T09:07:14.233Z,602.00
2024-03-30T09:08:14.171Z,600.00
2024-03-30T09:09:14.109Z,602.00
2024-03-30T09:10:14.056Z,604.00
2024-03-30T09:11:14.002Z,603.00
2024-03-30T09:12:13.921Z,601.00
2024-03-30T09:13:13.863Z,603.00
2024-03-30T09:14:13.808Z,608.00
2024-03-30T09:15:13.753Z,598.00
2024-03-30T09:16:13.703Z,605.00
2024-03-30T09:17:13.623Z,600.00
2024-03-30T09:18:13.587Z,603.00
2024-03-30T09:19:13.525Z,603.00
2024-03-30T09:20:13.445Z,603.00
2024-03-30T09:21:13.389Z,601.00
2024-03-30T09:22:13.360Z,606.00
2024-03-30T09:23:13.359Z,605.00
2024-03-30T09:24:13.357Z,603.00
2024-03-30T09:25:13.318Z,604.00
2024-03-30T09:26:13.298Z,605.00
2024-03-30T09:27:13.257Z,605.00
2024-03-30T09:28:13.233Z,606.00
2024-03-30T09:29:13.220Z,600.00
2024-03-30T09:30:13.206Z,603.00
2024-03-30T09:31:13.182Z,600.00
2024-03-30T09:32:13.140Z,605.00
2024-03-30T09:33:13.107Z,600.00
2024-03-30T09:34:18.719Z,606.00
2024-03-30T09:35:14.016Z,596.00
2024-03-30T09:36:12.948Z,598.00
2024-03-30T09:37:12.889Z,592.00
2024-03-30T09:38:12.834Z,585.00
2024-03-30T09:39:12.776Z,582.00
2024-03-30T09:40:12.722Z,600.00
2024-03-30T09:41:12.662Z,602.00
2024-03-30T09:42:12.595Z,604.00
2024-03-30T09:43:12.549Z,604.00
2024-03-30T09:44:12.483Z,602.00
2024-03-30T09:45:12.427Z,602.00
2024-03-30T09:46:12.363Z,602.00
2024-03-30T09:47:12.378Z,600.00
2024-03-30T09:48:12.339Z,607.00
2024-03-30T09:49:12.312Z,600.00
2024-03-30T09:50:12.277Z,601.00
2024-03-30T09:51:12.249Z,602.00
2024-03-30T09:52:12.243Z,601.00
2024-03-30T09:53:12.214Z,603.00
2024-03-30T09:54:12.244Z,602.00
2024-03-30T09:55:12.291Z,601.00
2024-03-30T09:56:12.221Z,603.00
2024-03-30T09:57:12.173Z,600.00
2024-03-30T09:58:12.144Z,601.00
2024-03-30T09:59:12.109Z,600.00
2024-03-30T10:00:12.089Z,606.00
2024-03-30T10:01:12.039Z,605.00
2024-03-30T10:02:12.005Z,600.00
2024-03-30T10:03:11.999Z,602.00
2024-03-30T10:04:11.997Z,600.00
2024-03-30T10:05:22.241Z,601.00
2024-03-30T10:06:12.894Z,601.00
2024-03-30T10:07:11.832Z,602.00
2024-03-30T10:08:11.765Z,602.00
2024-03-30T10:09:11.732Z,604.00
2024-03-30T10:10:11.648Z,609.00
2024-03-30T10:11:11.593Z,609.00
2024-03-30T10:12:11.535Z,605.00
2024-03-30T10:13:11.458Z,600.00
2024-03-30T10:14:11.391Z,606.00
2024-03-30T10:15:11.376Z,601.00
2024-03-30T10:16:11.267Z,608.00
2024-03-30T10:17:11.204Z,601.00
2024-03-30T10:18:11.208Z,603.00
2024-03-30T10:19:11.115Z,604.00
2024-03-30T10:20:11.080Z,606.00
2024-03-30T10:21:11.094Z,601.00
2024-03-30T10:22:11.038Z,604.00
2024-03-30T10:23:11.037Z,604.00
2024-03-30T10:24:11.010Z,605.00
2024-03-30T10:25:10.972Z,607.00
2024-03-30T10:26:10.946Z,605.00
2024-03-30T10:27:10.990Z,604.00
2024-03-30T10:28:10.900Z,602.00
2024-03-30T10:29:10.854Z,611.00
2024-03-30T10:30:10.883Z,610.00
2024-03-30T10:31:10.863Z,611.00
2024-03-30T10:32:10.872Z,614.00
2024-03-30T10:33:10.889Z,606.00
2024-03-30T10:34:10.829Z,609.00
2024-03-30T10:35:10.824Z,605.00
2024-03-30T10:36:10.865Z,612.00
2024-03-30T10:37:10.814Z,607.00
2024-03-30T10:38:11.734Z,613.00
2024-03-30T10:39:10.856Z,603.00
2024-03-30T10:40:10.830Z,606.00
2024-03-30T10:41:10.841Z,600.00
2024-03-30T10:42:10.870Z,608.00
2024-03-30T10:43:10.830Z,604.00
2024-03-30T10:44:10.816Z,608.00
2024-03-30T10:45:10.790Z,612.00
2024-03-30T10:46:10.721Z,613.00
2024-03-30T10:47:10.683Z,613.00
2024-03-30T10:48:10.644Z,610.00
2024-03-30T10:49:10.596Z,606.00
2024-03-30T10:50:10.551Z,612.00
2024-03-30T10:51:10.544Z,602.00
2024-03-30T10:52:10.453Z,606.00
2024-03-30T10:53:10.418Z,608.00
2024-03-30T10:54:10.425Z,602.00
2024-03-30T10:55:10.323Z,608.00
2024-03-30T10:56:10.272Z,608.00
2024-03-30T10:57:10.291Z,605.00
2024-03-30T10:58:10.269Z,608.00
2024-03-30T10:59:10.329Z,605.00
2024-03-30T11:00:10.258Z,607.00
2024-03-30T11:01:10.246Z,608.00
2024-03-30T11:02:10.236Z,607.00
2024-03-30T11:03:10.305Z,600.00
2024-03-30T11:04:10.243Z,608.00
2024-03-30T11:05:10.238Z,605.00
2024-03-30T11:06:10.235Z,608.00
2024-03-30T11:07:10.234Z,608.00
2024-03-30T11:08:10.199Z,619.00
2024-03-30T11:09:10.221Z,615.00
2024-03-30T11:10:10.201Z,624.00
2024-03-30T11:11:10.199Z,626.00
2024-03-30T11:12:10.258Z,629.00
2024-03-30T11:13:10.650Z,632.00
2024-03-30T11:14:10.211Z,636.00
2024-03-30T11:15:10.259Z,650.00
2024-03-30T11:16:10.198Z,652.00
2024-03-30T11:17:10.198Z,650.00
2024-03-30T11:18:10.168Z,656.00
2024-03-30T11:19:10.179Z,649.00
2024-03-30T11:20:10.180Z,642.00
2024-03-30T11:21:10.194Z,658.00
2024-03-30T11:22:10.163Z,654.00
2024-03-30T11:23:10.175Z,654.00
2024-03-30T11:24:10.113Z,649.00
2024-03-30T11:25:10.088Z,657.00
2024-03-30T11:26:10.060Z,694.00
2024-03-30T11:27:10.054Z,704.00
2024-03-30T11:28:10.028Z,716.00
2024-03-30T11:29:10.028Z,743.00
2024-03-30T11:30:10.022Z,765.00
2024-03-30T11:31:10.001Z,792.00
2024-03-30T11:32:09.996Z,839.00
2024-03-30T11:33:10.027Z,850.00
2024-03-30T11:34:09.998Z,867.00
2024-03-30T11:35:09.964Z,892.00
2024-03-30T11:36:09.953Z,914.00
2024-03-30T11:37:09.950Z,944.00
2024-03-30T11:38:09.941Z,945.00
2024-03-30T11:39:09.960Z,964.00
2024-03-30T11:40:09.891Z,972.00
2024-03-30T11:41:09.841Z,992.00
2024-03-30T11:42:09.830Z,1023.00
2024-03-30T11:43:09.765Z,1033.00
2024-03-30T11:44:09.733Z,1033.00
2024-03-30T11:45:09.738Z,1057.00
2024-03-30T11:46:09.714Z,1059.00
2024-03-30T11:47:09.715Z,1086.00
2024-03-30T11:48:09.765Z,1088.00
2024-03-30T11:49:09.719Z,1097.00
2024-03-30T11:50:09.716Z,1106.00
2024-03-30T11:51:09.741Z,1114.00
2024-03-30T11:52:09.714Z,1129.00
2024-03-30T11:53:09.695Z,1142.00
2024-03-30T11:54:09.718Z,1137.00
2024-03-30T11:55:09.687Z,1133.00
2024-03-30T11:56:09.655Z,1149.00
2024-03-30T11:57:16.722Z,1146.00
2024-03-30T11:58:10.575Z,1146.00
2024-03-30T11:59:09.514Z,1146.00
2024-03-30T12:00:09.463Z,1149.00
2024-03-30T12:01:09.394Z,1157.00
2024-03-30T12:02:09.379Z,1156.00
2024-03-30T12:03:09.298Z,1155.00
2024-03-30T12:04:09.230Z,1161.00
2024-03-30T12:05:09.196Z,1181.00
2024-03-30T12:06:09.120Z,1176.00
2024-03-30T12:07:09.064Z,1164.00
2024-03-30T12:08:09.014Z,1180.00
2024-03-30T12:09:08.986Z,1169.00
2024-03-30T12:10:08.924Z,1168.00
2024-03-30T12:11:08.858Z,1149.00
2024-03-30T12:12:08.941Z,1159.00
2024-03-30T12:13:08.758Z,1140.00
2024-03-30T12:14:08.714Z,1121.00
2024-03-30T12:15:08.686Z,1127.00
2024-03-30T12:16:08.624Z,1110.00
2024-03-30T12:17:08.623Z,1130.00
2024-03-30T12:18:08.644Z,1129.00
2024-03-30T12:19:08.646Z,1140.00
2024-03-30T12:20:08.657Z,1139.00